Time;durP1;ratioP1;P1;durP2;ratioP2;P2;SDS_P1;SDS_P2;PMS_P1;PMS_P2;Temp;Humidity;BMP_temperature;BMP_pressure;BME280_temperature;BME280_humidity;BME280_pressure;Samples;Min_cycle;Max_cycle;Signal;HPM_P1;HPM_P2
2022/09/16 00:01:43;;;;;;;2.30;2.20;;;;;;;;;;4974031;28;20066;-62
2022/09/16 00:04:08;;;;;;;2.60;2.40;;;;;;;;;;4974406;28;20022;-62
2022/09/16 00:06:34;;;;;;;2.85;2.65;;;;;;;;;;4974920;28;20408;-62
2022/09/16 00:09:02;;;;;;;2.40;2.30;;;;;;;;;;4973796;28;20235;-62
2022/09/16 00:11:28;;;;;;;2.75;2.28;;;;;;;;;;4972061;28;20027;-64
2022/09/16 00:13:53;;;;;;;3.78;2.90;;;;;;;;;;4970675;28;20040;-63
2022/09/16 00:16:20;;;;;;;2.40;2.28;;;;;;;;;;4973946;28;20045;-63
2022/09/16 00:18:45;;;;;;;2.47;2.38;;;;;;;;;;4973143;28;20113;-62
2022/09/16 00:21:10;;;;;;;2.60;2.40;;;;;;;;;;4975049;28;20039;-63
2022/09/16 00:23:36;;;;;;;3.85;2.50;;;;;;;;;;4972305;28;20051;-62
2022/09/16 00:26:01;;;;;;;3.00;2.08;;;;;;;;;;4974929;28;20026;-64
2022/09/16 00:28:26;;;;;;;2.53;2.35;;;;;;;;;;4973607;28;20030;-62
2022/09/16 00:30:52;;;;;;;2.50;2.30;;;;;;;;;;4974033;28;20065;-63
2022/09/16 00:33:18;;;;;;;3.55;2.85;;;;;;;;;;4971812;28;20082;-62
2022/09/16 00:35:43;;;;;;;3.22;3.03;;;;;;;;;;4975223;28;20023;-62
2022/09/16 00:38:09;;;;;;;4.13;3.13;;;;;;;;;;4973933;28;20372;-62
2022/09/16 00:40:42;;;;;;;3.35;2.92;;;;;;;;;;4973972;28;20030;-62
2022/09/16 00:43:08;;;;;;;3.63;2.97;;;;;;;;;;4972917;28;20018;-62
2022/09/16 00:45:33;;;;;;;3.08;2.78;;;;;;;;;;4973902;28;20038;-62
2022/09/16 00:48:05;;;;;;;4.70;3.00;;;;;;;;;;4973565;28;20034;-62
2022/09/16 00:50:39;;;;;;;3.42;3.17;;;;;;;;;;4974455;28;20121;-62
2022/09/16 00:53:06;;;;;;;3.05;2.85;;;;;;;;;;4971941;28;20023;-63
2022/09/16 00:55:32;;;;;;;3.92;3.25;;;;;;;;;;4975255;28;20441;-62
2022/09/16 00:58:18;;;;;;;3.25;2.90;;;;;;;;;;4973256;28;20747;-63
2022/09/16 01:00:43;;;;;;;;;;;;;;;;;;4972115;28;20042;-63
2022/09/16 01:03:08;;;;;;;2.10;2.00;;;;;;;;;;4971676;28;20367;-63
2022/09/16 01:05:35;;;;;;;2.45;2.28;;;;;;;;;;4973848;28;20034;-63
2022/09/16 01:08:01;;;;;;;3.47;2.72;;;;;;;;;;4973706;28;20030;-63
2022/09/16 01:10:26;;;;;;;3.10;2.90;;;;;;;;;;4969439;28;20026;-63
2022/09/16 01:12:57;;;;;;;3.10;2.88;;;;;;;;;;4971143;28;20022;-64
2022/09/16 01:15:25;;;;;;;7.20;3.05;;;;;;;;;;4973169;28;20035;-63
2022/09/16 01:18:16;;;;;;;5.57;3.15;;;;;;;;;;4974038;28;20066;-63
2022/09/16 01:20:44;;;;;;;2.92;2.72;;;;;;;;;;4969007;28;20042;-63
2022/09/16 01:23:12;;;;;;;3.95;3.30;;;;;;;;;;4973274;28;20025;-64
2022/09/16 01:25:37;;;;;;;3.40;3.13;;;;;;;;;;4973174;28;20033;-64
2022/09/16 01:28:18;;;;;;;3.33;2.90;;;;;;;;;;4972325;28;20423;-63
2022/09/16 01:31:02;;;;;;;3.22;2.92;;;;;;;;;;4973868;28;20130;-63
2022/09/16 01:33:27;;;;;;;3.08;2.78;;;;;;;;;;4972613;28;20041;-63
2022/09/16 01:35:58;;;;;;;3.05;2.85;;;;;;;;;;4968883;28;20018;-64
2022/09/16 01:38:29;;;;;;;2.88;2.70;;;;;;;;;;4968716;28;20026;-63
2022/09/16 01:41:03;;;;;;;4.65;3.33;;;;;;;;;;4971936;28;20030;-64
2022/09/16 01:43:37;;;;;;;2.97;2.73;;;;;;;;;;4973329;28;20035;-63
2022/09/16 01:46:09;;;;;;;3.33;3.13;;;;;;;;;;4971695;28;20038;-61
2022/09/16 01:48:37;;;;;;;2.97;2.78;;;;;;;;;;4972958;28;20724;-61
2022/09/16 01:51:06;;;;;;;5.07;3.42;;;;;;;;;;4974284;28;20415;-62
2022/09/16 01:53:36;;;;;;;3.40;2.70;;;;;;;;;;4974503;28;20066;-62
2022/09/16 01:56:04;;;;;;;3.35;3.05;;;;;;;;;;4970585;28;20054;-62
2022/09/16 01:58:46;;;;;;;3.38;3.08;;;;;;;;;;4968266;28;20370;-63
2022/09/16 02:01:15;;;;;;;4.03;3.72;;;;;;;;;;4972862;28;20044;-62
2022/09/16 02:03:41;;;;;;;3.78;3.45;;;;;;;;;;4972675;28;20034;-62
2022/09/16 02:06:08;;;;;;;3.50;3.10;;;;;;;;;;4973453;28;20133;-64
2022/09/16 02:08:38;;;;;;;3.45;3.15;;;;;;;;;;4971662;28;20065;-63
2022/09/16 02:11:06;;;;;;;3.65;3.10;;;;;;;;;;4972535;28;20451;-64
2022/09/16 02:13:33;;;;;;;3.88;3.58;;;;;;;;;;4973123;28;20037;-62
2022/09/16 02:16:01;;;;;;;4.50;3.55;;;;;;;;;;4972998;28;20027;-63
2022/09/16 02:18:29;;;;;;;3.55;3.20;;;;;;;;;;4969821;28;20031;-63
2022/09/16 02:20:56;;;;;;;3.72;3.00;;;;;;;;;;4972122;28;20033;-62
2022/09/16 02:23:23;;;;;;;3.25;2.95;;;;;;;;;;4973982;28;20038;-63
2022/09/16 02:25:49;;;;;;;4.22;3.80;;;;;;;;;;4972198;28;20159;-63
2022/09/16 02:28:30;;;;;;;8.35;3.30;;;;;;;;;;4972737;28;20142;-64
2022/09/16 02:30:57;;;;;;;4.47;3.00;;;;;;;;;;4973424;28;20055;-63
2022/09/16 02:33:29;;;;;;;3.90;3.50;;;;;;;;;;4972173;28;20992;-62
2022/09/16 02:35:54;;;;;;;3.88;2.70;;;;;;;;;;4971976;28;20039;-63
2022/09/16 02:38:23;;;;;;;4.18;3.53;;;;;;;;;;4970819;28;20037;-63
2022/09/16 02:40:53;;;;;;;3.60;3.22;;;;;;;;;;4972292;28;20039;-63
2022/09/16 02:43:18;;;;;;;3.45;3.15;;;;;;;;;;4972069;28;20086;-64
2022/09/16 02:45:52;;;;;;;6.00;3.92;;;;;;;;;;4974898;28;20022;-63
2022/09/16 02:48:18;;;;;;;4.15;3.45;;;;;;;;;;4975916;28;20650;-64
2022/09/16 02:50:53;;;;;;;5.97;4.22;;;;;;;;;;4976407;28;20048;-63
2022/09/16 02:53:26;;;;;;;8.45;4.72;;;;;;;;;;4974721;28;20026;-63
2022/09/16 02:56:01;;;;;;;17.13;6.20;;;;;;;;;;4975335;28;20797;-63
2022/09/16 02:58:26;;;;;;;10.55;4.90;;;;;;;;;;4974779;28;20041;-64
2022/09/16 03:00:53;;;;;;;9.70;4.90;;;;;;;;;;4974929;28;20046;-63
2022/09/16 03:03:19;;;;;;;14.45;6.95;;;;;;;;;;4975302;28;20038;-64
2022/09/16 03:05:59;;;;;;;58.80;55.10;;;;;;;;;;4977051;28;20436;-63
2022/09/16 03:08:24;;;;;;;147.70;139.52;;;;;;;;;;4991579;28;20018;-62
2022/09/16 03:10:51;;;;;;;254.13;238.43;;;;;;;;;;4973038;28;20096;-64
2022/09/16 03:13:26;;;;;;;309.08;286.80;;;;;;;;;;4975185;28;20027;-63
2022/09/16 03:16:04;;;;;;;336.08;308.80;;;;;;;;;;4976522;28;20026;-63
2022/09/16 03:18:32;;;;;;;326.77;301.50;;;;;;;;;;4976178;28;20026;-64
2022/09/16 03:21:07;;;;;;;3.92;3.60;;;;;;;;;;4973653;28;20042;-63
2022/09/16 03:23:47;;;;;;;361.85;327.30;;;;;;;;;;4971157;28;20784;-63
2022/09/16 03:26:21;;;;;;;5.15;4.43;;;;;;;;;;4973045;28;20038;-63
2022/09/16 03:28:53;;;;;;;60.47;56.38;;;;;;;;;;4975729;28;20033;-63
2022/09/16 03:31:34;;;;;;;259.35;243.43;;;;;;;;;;4982421;28;20150;-63
2022/09/16 03:34:29;;;;;;;4.00;3.40;;;;;;;;;;4975753;28;20046;-64
2022/09/16 03:36:59;;;;;;;3.60;3.30;;;;;;;;;;4976610;28;20034;-64
2022/09/16 03:39:24;;;;;;;5.05;3.90;;;;;;;;;;4974808;28;20032;-64
2022/09/16 03:41:49;;;;;;;7.30;2.97;;;;;;;;;;4973111;28;20035;-64
2022/09/16 03:44:15;;;;;;;3.15;2.85;;;;;;;;;;4975553;28;20029;-64
2022/09/16 03:46:40;;;;;;;3.47;3.17;;;;;;;;;;4974896;28;20030;-64
2022/09/16 03:49:05;;;;;;;3.20;2.85;;;;;;;;;;4974914;28;20030;-63
2022/09/16 03:51:30;;;;;;;7.78;4.53;;;;;;;;;;4974893;28;20110;-64
2022/09/16 03:53:56;;;;;;;3.28;2.97;;;;;;;;;;4975537;28;20031;-63
2022/09/16 03:56:22;;;;;;;3.70;2.90;;;;;;;;;;4973254;28;20237;-63
2022/09/16 03:58:47;;;;;;;3.67;3.38;;;;;;;;;;4975178;28;20507;-63
2022/09/16 04:01:13;;;;;;;3.28;3.08;;;;;;;;;;4974539;28;20045;-63
2022/09/16 04:03:38;;;;;;;5.45;4.68;;;;;;;;;;4974802;28;20038;-63
2022/09/16 04:06:03;;;;;;;4.72;4.20;;;;;;;;;;4974118;28;20026;-63
2022/09/16 04:08:29;;;;;;;5.25;4.05;;;;;;;;;;4974648;28;20959;-63
2022/09/16 04:10:58;;;;;;;6.22;3.88;;;;;;;;;;4974096;28;20553;-63
2022/09/16 04:13:24;;;;;;;5.28;4.78;;;;;;;;;;4973988;28;20516;-62
2022/09/16 04:15:49;;;;;;;4.53;4.05;;;;;;;;;;4974897;28;20030;-62
2022/09/16 04:18:15;;;;;;;3.88;3.55;;;;;;;;;;4972702;28;20033;-63
2022/09/16 04:20:41;;;;;;;7.30;4.32;;;;;;;;;;4975347;28;20867;-61
2022/09/16 04:23:06;;;;;;;7.20;4.97;;;;;;;;;;4974979;28;20424;-62
2022/09/16 04:25:32;;;;;;;7.65;5.65;;;;;;;;;;4972529;28;20460;-64
2022/09/16 04:27:57;;;;;;;10.00;6.03;;;;;;;;;;4973636;28;20026;-62
2022/09/16 04:30:23;;;;;;;6.25;4.00;;;;;;;;;;4971886;28;20073;-63
2022/09/16 04:32:51;;;;;;;8.82;5.63;;;;;;;;;;4959555;28;20093;-63
2022/09/16 04:35:18;;;;;;;10.07;5.00;;;;;;;;;;4972463;28;20062;-63
2022/09/16 04:37:43;;;;;;;5.53;5.00;;;;;;;;;;4974411;28;20027;-63
2022/09/16 04:40:09;;;;;;;6.00;4.22;;;;;;;;;;4973965;28;20045;-62
2022/09/16 04:42:34;;;;;;;6.72;4.97;;;;;;;;;;4974061;28;20093;-62
2022/09/16 04:44:59;;;;;;;6.00;4.70;;;;;;;;;;4974059;28;20030;-62
2022/09/16 04:47:24;;;;;;;5.97;4.25;;;;;;;;;;4973714;28;20026;-62
2022/09/16 04:49:50;;;;;;;9.15;4.68;;;;;;;;;;4974917;28;20027;-62
2022/09/16 04:52:15;;;;;;;7.35;4.63;;;;;;;;;;4972640;28;20057;-62
2022/09/16 04:54:40;;;;;;;5.38;4.57;;;;;;;;;;4972387;28;20034;-62
2022/09/16 04:57:05;;;;;;;6.80;4.47;;;;;;;;;;4972981;28;20409;-61
2022/09/16 04:59:31;;;;;;;5.43;4.95;;;;;;;;;;4974380;28;20470;-61
2022/09/16 05:01:56;;;;;;;5.35;4.85;;;;;;;;;;4973884;28;20482;-61
2022/09/16 05:04:21;;;;;;;4.32;4.03;;;;;;;;;;4972597;28;20034;-60
2022/09/16 05:06:47;;;;;;;5.47;4.35;;;;;;;;;;4972296;28;20178;-63
2022/09/16 05:09:12;;;;;;;4.03;3.45;;;;;;;;;;4974517;28;20038;-64
2022/09/16 05:11:38;;;;;;;4.05;3.50;;;;;;;;;;4972726;28;20038;-58
2022/09/16 05:14:07;;;;;;;4.30;3.97;;;;;;;;;;4969522;28;20053;-65
2022/09/16 05:16:33;;;;;;;5.55;3.70;;;;;;;;;;4969646;28;20470;-67
2022/09/16 05:18:59;;;;;;;4.97;4.55;;;;;;;;;;4971089;28;20041;-68
2022/09/16 05:21:25;;;;;;;4.30;3.90;;;;;;;;;;4968718;28;20095;-67
2022/09/16 05:23:51;;;;;;;3.90;3.60;;;;;;;;;;4974120;28;20018;-66
2022/09/16 05:26:18;;;;;;;4.07;3.78;;;;;;;;;;4968188;28;20781;-66
2022/09/16 05:28:43;;;;;;;5.55;5.05;;;;;;;;;;4975013;28;20341;-67
2022/09/16 05:31:10;;;;;;;4.47;4.07;;;;;;;;;;4970640;28;20090;-67
2022/09/16 05:33:35;;;;;;;3.88;3.50;;;;;;;;;;4971182;28;20133;-68
2022/09/16 05:36:04;;;;;;;3.75;3.45;;;;;;;;;;4971983;28;20082;-67
2022/09/16 05:38:29;;;;;;;5.88;3.63;;;;;;;;;;4971985;28;20027;-62
2022/09/16 05:40:57;;;;;;;5.03;3.80;;;;;;;;;;4971385;28;20097;-64
2022/09/16 05:43:22;;;;;;;4.25;3.85;;;;;;;;;;4973168;28;20352;-64
2022/09/16 05:45:51;;;;;;;5.22;3.80;;;;;;;;;;4972405;28;20049;-64
2022/09/16 05:48:16;;;;;;;5.78;4.57;;;;;;;;;;4972654;28;20030;-64
2022/09/16 05:50:53;;;;;;;3.78;3.47;;;;;;;;;;4973281;28;20026;-64
2022/09/16 05:53:18;;;;;;;3.67;3.35;;;;;;;;;;4974013;28;20073;-64
2022/09/16 05:55:53;;;;;;;4.43;3.33;;;;;;;;;;4972214;28;20035;-63
2022/09/16 05:58:18;;;;;;;5.35;4.00;;;;;;;;;;4973215;28;20117;-66
2022/09/16 06:00:45;;;;;;;5.82;3.63;;;;;;;;;;4971445;28;20047;-63
2022/09/16 06:03:10;;;;;;;3.88;3.47;;;;;;;;;;4971802;28;20078;-63
2022/09/16 06:05:35;;;;;;;3.30;2.95;;;;;;;;;;4973044;28;20052;-63
2022/09/16 06:08:00;;;;;;;3.30;3.00;;;;;;;;;;4971963;28;20041;-63
2022/09/16 06:10:26;;;;;;;3.90;3.60;;;;;;;;;;4972742;28;20031;-63
2022/09/16 06:12:51;;;;;;;4.43;3.65;;;;;;;;;;4973919;28;20030;-63
2022/09/16 06:15:16;;;;;;;4.75;3.10;;;;;;;;;;4971300;28;20015;-62
2022/09/16 06:17:41;;;;;;;4.85;3.20;;;;;;;;;;4971290;28;20899;-63
2022/09/16 06:20:12;;;;;;;4.10;3.50;;;;;;;;;;4973069;28;20508;-63
2022/09/16 06:22:38;;;;;;;3.92;3.63;;;;;;;;;;4960864;28;20031;-63
2022/09/16 06:25:04;;;;;;;4.05;3.67;;;;;;;;;;4976641;28;20339;-64
2022/09/16 06:27:30;;;;;;;4.13;3.67;;;;;;;;;;4975974;28;20054;-63
2022/09/16 06:29:55;;;;;;;3.67;3.38;;;;;;;;;;4975334;28;20104;-63
2022/09/16 06:32:20;;;;;;;4.53;3.55;;;;;;;;;;4976101;28;20030;-63
2022/09/16 06:34:46;;;;;;;4.95;3.25;;;;;;;;;;4976462;28;20114;-62
2022/09/16 06:37:13;;;;;;;4.03;3.38;;;;;;;;;;4974901;28;20556;-61
2022/09/16 06:39:38;;;;;;;3.92;3.38;;;;;;;;;;4974189;28;20045;-63
2022/09/16 06:42:06;;;;;;;4.00;3.60;;;;;;;;;;4977056;28;20030;-63
2022/09/16 06:44:31;;;;;;;4.25;3.42;;;;;;;;;;4975875;28;20125;-62
2022/09/16 06:46:56;;;;;;;5.82;3.85;;;;;;;;;;4979214;28;20033;-64
2022/09/16 06:49:21;;;;;;;4.75;4.20;;;;;;;;;;4978253;28;20022;-63
2022/09/16 06:51:47;;;;;;;4.47;4.03;;;;;;;;;;4976213;28;20034;-63
2022/09/16 06:54:12;;;;;;;7.47;3.90;;;;;;;;;;4977539;28;20036;-63
2022/09/16 06:56:38;;;;;;;4.00;3.60;;;;;;;;;;4977412;28;20023;-63
2022/09/16 06:59:04;;;;;;;8.32;3.70;;;;;;;;;;4977340;28;20031;-63
2022/09/16 07:01:30;;;;;;;5.72;3.75;;;;;;;;;;4978749;28;20109;-63
2022/09/16 07:03:57;;;;;;;5.15;4.00;;;;;;;;;;4971983;28;20551;-62
2022/09/16 07:06:23;;;;;;;4.20;3.88;;;;;;;;;;4973519;28;20098;-62
2022/09/16 07:08:48;;;;;;;5.45;4.38;;;;;;;;;;4976956;28;20069;-65
2022/09/16 07:11:15;;;;;;;5.25;4.25;;;;;;;;;;4976782;28;20472;-62
2022/09/16 07:13:41;;;;;;;4.43;3.83;;;;;;;;;;4976293;28;20050;-65
2022/09/16 07:16:08;;;;;;;3.75;3.40;;;;;;;;;;4971726;28;20130;-62
2022/09/16 07:18:33;;;;;;;5.95;4.50;;;;;;;;;;4971409;28;20324;-63
2022/09/16 07:21:03;;;;;;;4.50;3.47;;;;;;;;;;4976444;28;20440;-62
2022/09/16 07:23:31;;;;;;;3.55;3.25;;;;;;;;;;4975150;28;20544;-63
2022/09/16 07:26:04;;;;;;;4.55;4.25;;;;;;;;;;4975169;28;20022;-62
2022/09/16 07:28:30;;;;;;;4.15;3.33;;;;;;;;;;4976638;28;20024;-63
2022/09/16 07:31:00;;;;;;;4.03;3.72;;;;;;;;;;4973054;28;20233;-63
2022/09/16 07:33:25;;;;;;;5.07;4.40;;;;;;;;;;4973871;28;20034;-63
2022/09/16 07:35:51;;;;;;;4.55;4.10;;;;;;;;;;4975037;28;20382;-63
2022/09/16 07:38:16;;;;;;;4.20;3.90;;;;;;;;;;4975035;28;20034;-62
2022/09/16 07:40:41;;;;;;;4.15;3.40;;;;;;;;;;4982481;28;20497;-62
2022/09/16 07:43:07;;;;;;;4.70;4.28;;;;;;;;;;4974670;28;20472;-63
2022/09/16 07:45:32;;;;;;;5.20;3.67;;;;;;;;;;4973028;28;20550;-61
2022/09/16 07:47:57;;;;;;;4.95;3.53;;;;;;;;;;4972497;28;20035;-61
2022/09/16 07:50:22;;;;;;;4.65;4.20;;;;;;;;;;4982310;28;20027;-60
2022/09/16 07:52:47;;;;;;;5.38;3.90;;;;;;;;;;4974372;28;20038;-60
2022/09/16 07:55:15;;;;;;;4.82;4.07;;;;;;;;;;4974431;28;20033;-60
2022/09/16 07:57:41;;;;;;;6.72;4.60;;;;;;;;;;4975363;28;20049;-62
2022/09/16 08:00:06;;;;;;;8.10;4.25;;;;;;;;;;4974232;28;20381;-62
2022/09/16 08:02:32;;;;;;;4.78;3.65;;;;;;;;;;4974287;28;20019;-62
2022/09/16 08:04:57;;;;;;;3.92;3.60;;;;;;;;;;4974784;28;20041;-62
2022/09/16 08:07:22;;;;;;;4.80;4.03;;;;;;;;;;4972072;28;20491;-63
2022/09/16 08:09:48;;;;;;;3.50;2.88;;;;;;;;;;4969451;28;20466;-62
2022/09/16 08:12:13;;;;;;;3.40;3.10;;;;;;;;;;4973604;28;20034;-64
2022/09/16 08:14:38;;;;;;;3.15;2.85;;;;;;;;;;4973520;28;20034;-63
2022/09/16 08:17:04;;;;;;;3.80;3.50;;;;;;;;;;4973272;28;20034;-63
2022/09/16 08:19:29;;;;;;;3.63;3.33;;;;;;;;;;4972822;28;20944;-62
2022/09/16 08:21:54;;;;;;;4.10;3.70;;;;;;;;;;4968787;28;20401;-63
2022/09/16 08:24:20;;;;;;;5.90;3.83;;;;;;;;;;4972228;28;20478;-61
2022/09/16 08:26:45;;;;;;;5.45;3.50;;;;;;;;;;4970244;28;20483;-62
2022/09/16 08:29:10;;;;;;;4.45;3.13;;;;;;;;;;4973834;28;20852;-61
2022/09/16 08:31:36;;;;;;;3.75;2.92;;;;;;;;;;4969374;28;20073;-62
2022/09/16 08:34:01;;;;;;;6.55;3.50;;;;;;;;;;4969784;28;20664;-64
2022/09/16 08:36:27;;;;;;;4.18;3.78;;;;;;;;;;4974722;28;20161;-64
2022/09/16 08:38:56;;;;;;;2.95;2.75;;;;;;;;;;4972972;28;20153;-63
2022/09/16 08:41:33;;;;;;;3.75;3.45;;;;;;;;;;4974505;28;20468;-65
2022/09/16 08:44:04;;;;;;;3.22;2.72;;;;;;;;;;4972202;28;20121;-64
2022/09/16 08:46:33;;;;;;;3.58;3.15;;;;;;;;;;4971821;28;20026;-67
2022/09/16 08:48:59;;;;;;;3.90;3.55;;;;;;;;;;4974251;28;20643;-65
2022/09/16 08:51:25;;;;;;;3.60;3.30;;;;;;;;;;4975237;28;20169;-66
2022/09/16 08:53:57;;;;;;;4.15;2.92;;;;;;;;;;4973553;28;20034;-67
2022/09/16 08:56:24;;;;;;;5.90;3.72;;;;;;;;;;4973219;28;20018;-67
2022/09/16 08:58:52;;;;;;;3.25;2.70;;;;;;;;;;4973030;28;20350;-66
2022/09/16 09:01:18;;;;;;;3.78;2.80;;;;;;;;;;4973732;28;20030;-67
2022/09/16 09:03:45;;;;;;;3.45;2.38;;;;;;;;;;4970212;28;20037;-66
2022/09/16 09:06:22;;;;;;;4.30;2.83;;;;;;;;;;4972326;28;20130;-66
2022/09/16 09:09:02;;;;;;;3.13;2.90;;;;;;;;;;4980526;28;20051;-65
2022/09/16 09:11:40;;;;;;;3.30;2.80;;;;;;;;;;4981642;28;20560;-67
2022/09/16 09:14:05;;;;;;;4.38;3.90;;;;;;;;;;4974682;28;20037;-67
2022/09/16 09:16:43;;;;;;;2.97;2.78;;;;;;;;;;4974168;28;20022;-66
2022/09/16 09:19:26;;;;;;;4.25;3.00;;;;;;;;;;4973755;28;20031;-67
2022/09/16 09:22:01;;;;;;;4.25;3.30;;;;;;;;;;4974737;28;20465;-66
2022/09/16 09:24:47;;;;;;;7.28;3.15;;;;;;;;;;4980955;28;20027;-67
2022/09/16 09:27:12;;;;;;;5.13;3.75;;;;;;;;;;4974004;28;20022;-69
2022/09/16 09:29:56;;;;;;;5.10;3.38;;;;;;;;;;4972518;28;20034;-65
2022/09/16 09:32:24;;;;;;;5.53;3.78;;;;;;;;;;4972931;28;20500;-60
2022/09/16 09:35:10;;;;;;;4.63;3.38;;;;;;;;;;4972588;28;20034;-64
2022/09/16 09:37:41;;;;;;;6.25;2.83;;;;;;;;;;4973175;28;20043;-63
2022/09/16 09:40:22;;;;;;;4.10;3.80;;;;;;;;;;4967335;28;20034;-60
2022/09/16 09:42:52;;;;;;;7.22;3.90;;;;;;;;;;4969388;28;20113;-60
2022/09/16 09:45:20;;;;;;;5.22;3.72;;;;;;;;;;4968794;28;20022;-65
2022/09/16 09:47:47;;;;;;;8.35;6.10;;;;;;;;;;4967829;28;20057;-59
2022/09/16 09:50:27;;;;;;;6.93;4.45;;;;;;;;;;5005725;28;20500;-59
2022/09/16 09:52:56;;;;;;;4.75;3.75;;;;;;;;;;4973810;28;20030;-61
2022/09/16 09:55:23;;;;;;;6.72;3.25;;;;;;;;;;4972822;28;20495;-66
2022/09/16 09:58:04;;;;;;;5.75;3.83;;;;;;;;;;4974132;28;20037;-60
2022/09/16 10:00:29;;;;;;;5.65;3.60;;;;;;;;;;4972365;28;20041;-67
2022/09/16 10:03:01;;;;;;;6.72;3.60;;;;;;;;;;4973831;28;20039;-67
2022/09/16 10:05:27;;;;;;;4.32;3.75;;;;;;;;;;4969800;28;20031;-65
2022/09/16 10:07:55;;;;;;;9.65;4.25;;;;;;;;;;4973151;28;20100;-69
2022/09/16 10:10:22;;;;;;;6.43;3.63;;;;;;;;;;4973328;28;20035;-69
2022/09/16 10:12:47;;;;;;;4.30;3.85;;;;;;;;;;4973353;28;20073;-70
2022/09/16 10:15:28;;;;;;;5.03;4.20;;;;;;;;;;4971194;28;20413;-68
2022/09/16 10:17:55;;;;;;;4.85;4.45;;;;;;;;;;4968356;28;20022;-68
2022/09/16 10:20:25;;;;;;;4.03;3.72;;;;;;;;;;4971840;28;20030;-67
2022/09/16 10:22:57;;;;;;;5.60;3.42;;;;;;;;;;4973335;28;20105;-68
2022/09/16 10:25:23;;;;;;;5.28;3.78;;;;;;;;;;4972232;28;20026;-67
2022/09/16 10:28:00;;;;;;;5.85;3.90;;;;;;;;;;4974178;28;20154;-67
2022/09/16 10:30:31;;;;;;;6.28;3.67;;;;;;;;;;4972524;28;20054;-66
2022/09/16 10:33:00;;;;;;;5.70;3.90;;;;;;;;;;4975587;28;20042;-67
2022/09/16 10:35:26;;;;;;;7.35;3.67;;;;;;;;;;4972949;28;20019;-67
2022/09/16 10:37:56;;;;;;;4.40;4.00;;;;;;;;;;4972108;28;20056;-68
2022/09/16 10:40:22;;;;;;;4.13;3.80;;;;;;;;;;4980454;28;20481;-67
2022/09/16 10:42:48;;;;;;;4.47;3.22;;;;;;;;;;4969203;28;20546;-68
2022/09/16 10:45:16;;;;;;;5.90;3.90;;;;;;;;;;4971244;28;20457;-68
2022/09/16 10:47:47;;;;;;;3.75;3.45;;;;;;;;;;4971961;28;20031;-67
2022/09/16 10:50:17;;;;;;;4.80;3.65;;;;;;;;;;4971176;28;20126;-67
2022/09/16 10:52:43;;;;;;;4.97;3.28;;;;;;;;;;4972615;28;20027;-68
2022/09/16 10:55:20;;;;;;;4.18;3.85;;;;;;;;;;4972737;28;20125;-68
2022/09/16 10:57:45;;;;;;;6.38;3.70;;;;;;;;;;4971925;28;20054;-67
2022/09/16 11:00:17;;;;;;;5.70;3.88;;;;;;;;;;4971765;28;20464;-67
2022/09/16 11:02:54;;;;;;;4.65;3.22;;;;;;;;;;4972903;28;20031;-67
2022/09/16 11:05:32;;;;;;;7.40;4.05;;;;;;;;;;4972327;28;20030;-68
2022/09/16 11:08:06;;;;;;;5.30;3.33;;;;;;;;;;4974524;28;20031;-65
2022/09/16 11:10:39;;;;;;;6.95;3.63;;;;;;;;;;4975196;28;20030;-65
2022/09/16 11:13:04;;;;;;;3.63;3.08;;;;;;;;;;4974626;28;20043;-67
2022/09/16 11:15:48;;;;;;;4.20;3.80;;;;;;;;;;4976431;28;20042;-67
2022/09/16 11:18:20;;;;;;;5.20;3.58;;;;;;;;;;4976212;28;20456;-63
2022/09/16 11:20:54;;;;;;;4.38;3.90;;;;;;;;;;4975315;28;20035;-65
2022/09/16 11:23:26;;;;;;;4.47;4.07;;;;;;;;;;4975830;28;20030;-65
2022/09/16 11:26:10;;;;;;;5.90;3.65;;;;;;;;;;4974765;28;20026;-65
2022/09/16 11:28:41;;;;;;;4.25;3.83;;;;;;;;;;4975506;28;20030;-63
2022/09/16 11:31:06;;;;;;;5.45;3.40;;;;;;;;;;4974400;28;20592;-66
2022/09/16 11:33:50;;;;;;;4.43;3.30;;;;;;;;;;4975574;28;20086;-65
2022/09/16 11:36:20;;;;;;;4.32;3.42;;;;;;;;;;4975221;28;20034;-62
2022/09/16 11:38:58;;;;;;;5.45;3.53;;;;;;;;;;4976527;28;20030;-64
2022/09/16 11:41:35;;;;;;;6.30;3.17;;;;;;;;;;4974241;28;20118;-63
2022/09/16 11:44:19;;;;;;;6.53;3.72;;;;;;;;;;4975252;28;20473;-63
2022/09/16 11:46:50;;;;;;;4.90;3.38;;;;;;;;;;4974300;28;20061;-63
2022/09/16 11:49:34;;;;;;;5.07;4.45;;;;;;;;;;4974464;28;20118;-63
2022/09/16 11:52:07;;;;;;;4.57;4.15;;;;;;;;;;4974418;28;20893;-63
2022/09/16 11:54:41;;;;;;;3.88;3.55;;;;;;;;;;4975741;28;20026;-66
2022/09/16 11:57:12;;;;;;;6.38;3.70;;;;;;;;;;4974013;28;20061;-63
2022/09/16 11:59:58;;;;;;;4.70;3.70;;;;;;;;;;4971554;28;20118;-66
2022/09/16 12:02:29;;;;;;;4.03;3.17;;;;;;;;;;4971325;28;20102;-65
2022/09/16 12:05:05;;;;;;;5.78;4.03;;;;;;;;;;4976040;28;20041;-66
2022/09/16 12:07:33;;;;;;;5.57;3.85;;;;;;;;;;4973808;28;20034;-66
2022/09/16 12:10:03;;;;;;;5.78;4.32;;;;;;;;;;4975402;28;20027;-65
2022/09/16 12:12:32;;;;;;;5.18;4.68;;;;;;;;;;4972211;28;20390;-64
2022/09/16 12:15:16;;;;;;;4.63;3.90;;;;;;;;;;4974098;28;20070;-65
2022/09/16 12:17:44;;;;;;;6.65;4.18;;;;;;;;;;4974090;28;20064;-66
2022/09/16 12:20:18;;;;;;;7.57;3.95;;;;;;;;;;4974658;28;20184;-65
2022/09/16 12:23:02;;;;;;;5.80;3.72;;;;;;;;;;4973868;28;20030;-66
2022/09/16 12:25:34;;;;;;;6.72;4.30;;;;;;;;;;4975571;28;20097;-66
2022/09/16 12:28:06;;;;;;;7.00;3.55;;;;;;;;;;4973383;28;20033;-65
2022/09/16 12:30:36;;;;;;;7.38;4.20;;;;;;;;;;4970911;28;20146;-65
2022/09/16 12:33:21;;;;;;;5.50;4.15;;;;;;;;;;4970507;28;20044;-65
2022/09/16 12:35:49;;;;;;;6.07;3.80;;;;;;;;;;4972987;28;20030;-65
2022/09/16 12:38:15;;;;;;;5.95;4.03;;;;;;;;;;4973528;28;20117;-63
2022/09/16 12:40:59;;;;;;;7.03;4.50;;;;;;;;;;4974203;28;20471;-65
2022/09/16 12:43:38;;;;;;;4.72;4.32;;;;;;;;;;4973906;28;20026;-64
2022/09/16 12:46:36;;;;;;;4.00;3.63;;;;;;;;;;4974734;28;20022;-64
2022/09/16 12:49:16;;;;;;;4.50;3.70;;;;;;;;;;4975803;28;20046;-65
2022/09/16 12:51:51;;;;;;;4.55;4.07;;;;;;;;;;4974030;28;20382;-65
2022/09/16 12:54:25;;;;;;;4.65;3.95;;;;;;;;;;4974137;28;20456;-65
2022/09/16 12:56:50;;;;;;;5.70;4.53;;;;;;;;;;4974274;28;20038;-65
2022/09/16 12:59:30;;;;;;;6.80;4.75;;;;;;;;;;4972661;28;20652;-65
2022/09/16 13:02:09;;;;;;;4.25;3.70;;;;;;;;;;4969548;28;20034;-64
2022/09/16 13:04:46;;;;;;;5.30;4.15;;;;;;;;;;4971409;28;20034;-65
2022/09/16 13:07:25;;;;;;;3.60;3.30;;;;;;;;;;4974003;28;20058;-65
2022/09/16 13:09:59;;;;;;;4.05;3.63;;;;;;;;;;4973380;28;20392;-65
2022/09/16 13:12:26;;;;;;;5.47;3.17;;;;;;;;;;4972537;28;20022;-65
2022/09/16 13:14:55;;;;;;;3.92;3.25;;;;;;;;;;4972821;28;20088;-65
2022/09/16 13:17:26;;;;;;;7.00;3.60;;;;;;;;;;4968198;28;20447;-65
2022/09/16 13:19:53;;;;;;;3.80;3.40;;;;;;;;;;4972508;28;20027;-66
2022/09/16 13:22:53;;;;;;;7.97;5.15;;;;;;;;;;4971312;28;20065;-65
2022/09/16 13:25:22;;;;;;;6.30;3.42;;;;;;;;;;4960142;28;20078;-65
2022/09/16 13:28:13;;;;;;;5.40;3.90;;;;;;;;;;4959762;28;20509;-65
2022/09/16 13:30:38;;;;;;;4.68;3.95;;;;;;;;;;4958437;28;20055;-65
2022/09/16 13:33:10;;;;;;;3.65;3.35;;;;;;;;;;4960532;28;20045;-65
2022/09/16 13:35:42;;;;;;;6.72;4.38;;;;;;;;;;4960985;28;20034;-65
2022/09/16 13:38:30;;;;;;;3.95;3.55;;;;;;;;;;4961070;28;20058;-64
2022/09/16 13:41:00;;;;;;;3.92;3.63;;;;;;;;;;4960467;28;20065;-64
2022/09/16 13:43:31;;;;;;;4.43;3.97;;;;;;;;;;4976518;28;20035;-64
2022/09/16 13:46:01;;;;;;;6.47;4.15;;;;;;;;;;4959434;28;20070;-64
2022/09/16 13:48:26;;;;;;;4.95;4.25;;;;;;;;;;4960567;28;20038;-65
2022/09/16 13:50:53;;;;;;;6.63;4.60;;;;;;;;;;4928692;28;20026;-64
2022/09/16 13:53:32;;;;;;;10.27;3.92;;;;;;;;;;4959327;28;20093;-65
2022/09/16 13:56:06;;;;;;;8.30;4.40;;;;;;;;;;4960804;28;20486;-65
2022/09/16 13:58:37;;;;;;;3.90;3.60;;;;;;;;;;4962035;28;20433;-65
2022/09/16 14:01:20;;;;;;;5.60;4.97;;;;;;;;;;4968463;28;20042;-65
2022/09/16 14:04:00;;;;;;;5.93;4.15;;;;;;;;;;4971044;28;20041;-65
2022/09/16 14:06:54;;;;;;;7.55;3.60;;;;;;;;;;4973266;28;20023;-65
2022/09/16 14:09:19;;;;;;;6.45;3.95;;;;;;;;;;4971969;28;20154;-65
2022/09/16 14:11:46;;;;;;;6.78;4.82;;;;;;;;;;4972661;28;20380;-65
2022/09/16 14:14:21;;;;;;;4.35;3.60;;;;;;;;;;4971808;28;20046;-60
2022/09/16 14:16:47;;;;;;;5.82;4.55;;;;;;;;;;4974991;28;20091;-67
2022/09/16 14:19:23;;;;;;;8.50;4.72;;;;;;;;;;4971932;28;20027;-67
2022/09/16 14:22:05;;;;;;;4.30;3.88;;;;;;;;;;4973741;28;20042;-67
2022/09/16 14:24:37;;;;;;;5.35;4.85;;;;;;;;;;4972337;28;20026;-67
2022/09/16 14:27:03;;;;;;;6.55;4.70;;;;;;;;;;4973086;28;20097;-67
2022/09/16 14:29:30;;;;;;;5.40;4.35;;;;;;;;;;4971643;28;20558;-62
2022/09/16 14:31:55;;;;;;;8.13;4.75;;;;;;;;;;4972517;28;20535;-66
2022/09/16 14:34:29;;;;;;;5.30;4.90;;;;;;;;;;4972255;28;20066;-66
2022/09/16 14:36:55;;;;;;;5.10;3.85;;;;;;;;;;4972369;28;20057;-66
2022/09/16 14:39:22;;;;;;;4.75;4.07;;;;;;;;;;4974835;28;20077;-66
2022/09/16 14:41:47;;;;;;;5.18;4.72;;;;;;;;;;4973562;28;20042;-66
2022/09/16 14:44:18;;;;;;;4.95;4.45;;;;;;;;;;4976444;28;20026;-65
2022/09/16 14:46:46;;;;;;;5.15;4.40;;;;;;;;;;4975240;28;20037;-66
2022/09/16 14:49:13;;;;;;;6.18;4.53;;;;;;;;;;4977445;28;20113;-66
2022/09/16 14:51:42;;;;;;;5.72;4.28;;;;;;;;;;4974984;28;20031;-66
2022/09/16 14:54:14;;;;;;;5.20;4.32;;;;;;;;;;4975782;28;20051;-66
2022/09/16 14:56:39;;;;;;;4.97;4.38;;;;;;;;;;4976576;28;20057;-67
2022/09/16 14:59:05;;;;;;;6.28;4.20;;;;;;;;;;4976531;28;20117;-66